San Lorenzo, CA

7:50 AM PDT on August 22, 2014 (GMT -0700)
Center Street | Change Station
CLOSE
Current Station
Personal Weather Station
Location: Castro Valley, CA
Elevation: 472 ft
Nearby Weather Stations

Elev 472 ft 37.71 °N, 122.06 °W | Updated 18 seconds ago

Overcast
Overcast
60.3 °F
Feels Like 60.3 °F
N
3.0
Wind Variable Wind from WNW
Gusts 4.0 mph

Today
High -- | Low -- °F
--% Chance of Precip.
Yesterday
High -- | Low -- °F
Precip. -- in
6:30 AM 7:51 PM
Waning Crescent, 8% visible
Pressure 29.96 in
Visibility 10.0 miles
Clouds Overcast 1000 ft
Dew Point 58 °F
Humidity 92%
Rainfall 0.00 in
Snow Depth Not available.
UV 0 out of 12
Pollen 5.70 out of 12
Air Quality Not available.
Flu Activity Not available.
METAR KHWD 221354Z 29006KT 10SM OVC010 18/17 A2993 RMK AO2 SLP143 T01780167

More Conditions Fewer Conditions

Pressure 29.96 in
Visibility 10.0 miles
Clouds Overcast 1000 ft
Dew Point 58 °F
Humidity 92%
Rainfall 0.00 in
Snow Depth Not available.
UV 0 out of 12
Pollen 5.70 out of 12
Air Quality Not available.
Flu Activity Not available.
METAR KHWD 221354Z 29006KT 10SM OVC010 18/17 A2993 RMK AO2 SLP143 T01780167

More Conditions Fewer Conditions

10-Day Weather Forecast

Almanac

Astronomy

Aug. 22, 2014 Rise Set
Actual Time 6:30 AM PDT 7:51 PM PDT
Civil Twilight 6:02 AM PDT 8:19 PM PDT
Nautical Twilight 5:30 AM PDT 8:51 PM PDT
Astronomical Twilight 4:55 AM PDT 9:26 PM PDT
Moon 3:59 AM PDT 6:02 PM PDT
Length of Visible Light 14h 16m
Length of Day
13h 21m
Tomorrow will be 2m 15s shorter.
Waning Crescent, 8% of the Moon is Illuminated
Today
Waning Crescent
Aug 25
New
Sep 2
First Quarter
Sep 8
Full
Sep 15
Last Quarter

Today's Extremes

State Highs State Lows

Community

WunderPhotos

Upload Photos

1,746,181 photos uploaded!

WunderBlogs® & News

Nearby

Air Quality

  Air Quality AQ Index Pollutant
Friday Good
OZONE
Saturday Good
OZONE
Sunday Good
OZONE
Monday Good
OZONE
Tuesday Good
OZONE

Snow Depth

Station Depth Elevation
Forestdale Creek 0 in 8029 ft
Echo Peak 2 in 7800 ft
Fallen Leaf 0 in 6300 ft
Leavitt Lake 0 in 9400 ft
Hagan's Meadow 0 in 8000 ft

Earthquake Activity

City Distance Mag. Time & Date
Berkeley, California 15 miles 2.6 7:41 PM PDT
2014-08-16
King City, California 116 miles 2.7 10:26 PM PDT
2014-08-15
Minimum magnitude displayed is 2.5.

Coastal Water Temperatures

Place Temperature
No Stations Reporting

Nearby Weather Stations